createdAt,value
2023-02-28T00:00:13.827Z,4.03
2023-02-28T00:03:00.611Z,4.50
2023-02-28T00:05:47.204Z,4.73
2023-02-28T00:08:35.163Z,6.57
2023-02-28T00:11:21.796Z,7.00
2023-02-28T00:14:08.163Z,5.30
2023-02-28T00:16:54.602Z,3.50
2023-02-28T00:19:40.948Z,4.33
2023-02-28T00:22:27.456Z,3.40
2023-02-28T00:25:17.573Z,6.67
2023-02-28T00:28:03.819Z,4.77
2023-02-28T00:30:50.589Z,4.10
2023-02-28T00:33:39.058Z,5.57
2023-02-28T00:36:25.281Z,6.73
2023-02-28T00:39:11.706Z,5.17
2023-02-28T00:41:59.518Z,6.43
2023-02-28T00:44:45.940Z,4.03
2023-02-28T00:47:32.792Z,3.30
2023-02-28T00:50:21.008Z,4.20
2023-02-28T00:53:07.622Z,8.30
2023-02-28T00:55:54.212Z,6.47
2023-02-28T00:58:42.304Z,6.03
2023-02-28T01:01:29.427Z,5.20
2023-02-28T01:04:16.465Z,5.30
2023-02-28T01:07:02.880Z,4.47
2023-02-28T01:09:49.247Z,4.63
2023-02-28T01:12:35.482Z,6.23
2023-02-28T01:15:23.359Z,4.63
2023-02-28T01:18:10.226Z,4.90
2023-02-28T01:20:56.785Z,6.23
2023-02-28T01:23:44.014Z,5.50
2023-02-28T01:26:30.816Z,3.77
2023-02-28T01:29:17.606Z,5.63
2023-02-28T01:32:05.858Z,7.73
2023-02-28T01:34:52.316Z,3.83
2023-02-28T01:37:38.588Z,6.50
2023-02-28T01:40:24.908Z,3.83
2023-02-28T01:43:22.342Z,7.27
2023-02-28T01:46:08.786Z,4.43
2023-02-28T01:49:02.498Z,4.40
2023-02-28T01:51:52.421Z,5.13
2023-02-28T01:54:38.882Z,8.73
2023-02-28T01:57:32.154Z,5.07
2023-02-28T02:00:22.236Z,4.10
2023-02-28T02:03:12.001Z,4.43
2023-02-28T02:05:59.824Z,5.93
2023-02-28T02:08:46.272Z,6.03
2023-02-28T02:11:32.826Z,3.90
2023-02-28T02:14:33.679Z,3.70
2023-02-28T02:17:29.807Z,3.57
2023-02-28T02:20:42.610Z,7.97
2023-02-28T02:24:22.793Z,3.63
2023-02-28T02:27:28.079Z,3.50
2023-02-28T02:30:32.040Z,7.13
2023-02-28T02:33:38.255Z,4.03
2023-02-28T02:36:30.172Z,5.77
2023-02-28T02:39:21.372Z,5.33
2023-02-28T02:42:15.880Z,3.13
2023-02-28T02:45:06.795Z,5.00
2023-02-28T02:47:53.799Z,3.53
2023-02-28T02:50:43.925Z,4.60
2023-02-28T02:53:36.577Z,4.30
2023-02-28T02:56:28.592Z,4.00
2023-02-28T02:59:22.242Z,2.97
2023-02-28T03:02:11.481Z,5.17
2023-02-28T03:05:03.210Z,5.87
2023-02-28T03:07:49.836Z,3.07
2023-02-28T03:10:40.644Z,4.40
2023-02-28T03:13:49.521Z,3.43
2023-02-28T03:16:44.182Z,5.60
2023-02-28T03:19:42.109Z,3.57
2023-02-28T03:22:50.358Z,4.20
2023-02-28T03:25:47.026Z,3.70
2023-02-28T03:28:41.280Z,3.57
2023-02-28T03:31:32.523Z,2.90
2023-02-28T03:34:24.616Z,3.33
2023-02-28T03:37:14.292Z,3.07
2023-02-28T03:40:07.421Z,5.67
2023-02-28T03:43:00.844Z,3.77
2023-02-28T03:45:48.726Z,6.20
2023-02-28T03:48:42.349Z,4.10
2023-02-28T03:51:32.999Z,3.50
2023-02-28T03:54:23.658Z,5.57
2023-02-28T03:57:18.037Z,4.93
2023-02-28T04:00:09.298Z,3.50
2023-02-28T04:02:56.079Z,5.50
2023-02-28T04:05:51.058Z,3.37
2023-02-28T04:08:37.275Z,3.93
2023-02-28T04:11:25.893Z,3.77
2023-02-28T04:14:12.760Z,4.20
2023-02-28T04:17:00.596Z,5.03
2023-02-28T04:19:47.161Z,3.27
2023-02-28T04:22:33.506Z,5.00
2023-02-28T04:25:19.891Z,3.73
2023-02-28T04:28:06.546Z,3.73
2023-02-28T04:30:57.053Z,4.33
2023-02-28T04:33:45.448Z,6.27
2023-02-28T04:36:32.496Z,3.20
2023-02-28T04:39:19.470Z,4.90
2023-02-28T04:42:06.026Z,3.43
2023-02-28T04:44:52.410Z,4.37
2023-02-28T04:47:39.151Z,4.47
2023-02-28T04:50:28.445Z,4.07
2023-02-28T04:53:14.935Z,7.53
2023-02-28T04:56:01.648Z,4.73
2023-02-28T04:58:48.057Z,5.70
2023-02-28T05:01:37.312Z,10.00
2023-02-28T05:04:23.869Z,5.83
2023-02-28T05:07:11.774Z,7.07
2023-02-28T05:09:58.499Z,4.00
2023-02-28T05:12:44.953Z,7.43
2023-02-28T05:15:31.210Z,6.50
2023-02-28T05:18:17.617Z,9.67
2023-02-28T05:21:04.129Z,5.27
2023-02-28T05:23:52.429Z,5.10
2023-02-28T05:26:41.192Z,5.63
2023-02-28T05:29:28.124Z,5.03
2023-02-28T05:32:14.736Z,5.67
2023-02-28T05:35:00.968Z,8.17
2023-02-28T05:37:47.354Z,5.83
2023-02-28T05:40:35.176Z,10.57
2023-02-28T05:43:21.905Z,6.10
2023-02-28T05:46:10.585Z,7.63
2023-02-28T05:48:58.868Z,11.47
2023-02-28T05:51:45.685Z,6.17
2023-02-28T05:54:32.159Z,5.30
2023-02-28T05:57:24.719Z,6.90
2023-02-28T06:00:13.086Z,5.53
2023-02-28T06:03:02.674Z,8.90
2023-02-28T06:05:49.148Z,5.60
2023-02-28T06:08:35.807Z,6.97
2023-02-28T06:11:22.485Z,6.60
2023-02-28T06:14:16.585Z,8.17
2023-02-28T06:17:03.796Z,6.37
2023-02-28T06:19:50.325Z,5.03
2023-02-28T06:22:37.574Z,7.57
2023-02-28T06:25:24.049Z,6.83
2023-02-28T06:28:10.350Z,7.00
2023-02-28T06:30:58.231Z,8.30
2023-02-28T06:33:45.649Z,6.00
2023-02-28T06:36:32.347Z,8.87
2023-02-28T06:39:19.314Z,12.53
2023-02-28T06:42:06.361Z,9.77
2023-02-28T06:44:52.946Z,7.00
2023-02-28T06:47:41.665Z,6.63
2023-02-28T06:50:30.388Z,7.17
2023-02-28T06:53:17.146Z,8.27
2023-02-28T06:56:07.262Z,9.97
2023-02-28T06:58:53.892Z,6.03
2023-02-28T07:01:41.159Z,7.37
2023-02-28T07:04:31.035Z,4.17
2023-02-28T07:07:17.348Z,7.77
2023-02-28T07:10:03.778Z,8.40
2023-02-28T07:12:50.210Z,7.80
2023-02-28T07:15:39.343Z,5.63
2023-02-28T07:18:27.883Z,11.80
2023-02-28T07:21:15.704Z,8.60
2023-02-28T07:24:02.271Z,7.27
2023-02-28T07:26:48.612Z,7.27
2023-02-28T07:29:35.022Z,9.63
2023-02-28T07:32:21.667Z,7.10
2023-02-28T07:35:08.744Z,7.03
2023-02-28T07:37:58.934Z,9.77
2023-02-28T07:40:47.452Z,6.77
2023-02-28T07:43:34.200Z,10.27
2023-02-28T07:46:22.163Z,9.17
2023-02-28T07:49:08.536Z,8.53
2023-02-28T07:51:55.237Z,8.57
2023-02-28T07:54:42.848Z,6.03
2023-02-28T07:57:29.511Z,10.83
2023-02-28T08:00:16.382Z,7.27
2023-02-28T08:03:02.844Z,6.57
2023-02-28T08:05:50.304Z,8.17
2023-02-28T08:08:36.807Z,8.23
2023-02-28T08:11:25.000Z,10.30
2023-02-28T08:14:11.585Z,7.37
2023-02-28T08:16:57.870Z,5.90
2023-02-28T08:19:44.298Z,6.00
2023-02-28T08:22:30.571Z,14.03
2023-02-28T08:25:19.090Z,7.57
2023-02-28T08:28:07.427Z,7.43
2023-02-28T08:30:54.595Z,14.80
2023-02-28T08:33:41.030Z,6.77
2023-02-28T08:36:29.492Z,15.77
2023-02-28T08:39:16.560Z,9.23
2023-02-28T08:42:07.530Z,6.60
2023-02-28T08:44:55.678Z,6.90
2023-02-28T08:47:42.496Z,8.30
2023-02-28T08:50:29.095Z,6.90
2023-02-28T08:53:15.419Z,9.23
2023-02-28T08:56:04.394Z,7.50
2023-02-28T08:58:52.482Z,6.20
2023-02-28T09:01:42.083Z,7.27
2023-02-28T09:04:31.578Z,6.97
2023-02-28T09:07:17.857Z,6.03
2023-02-28T09:10:04.485Z,6.47
2023-02-28T09:12:51.150Z,6.50
2023-02-28T09:15:39.978Z,7.70
2023-02-28T09:18:28.488Z,8.03
2023-02-28T09:21:17.840Z,8.47
2023-02-28T09:24:04.976Z,8.37
2023-02-28T09:27:03.827Z,12.23
2023-02-28T09:29:51.427Z,8.00
2023-02-28T09:32:38.081Z,6.63
2023-02-28T09:35:27.744Z,7.57
2023-02-28T09:38:14.236Z,8.33
2023-02-28T09:41:02.982Z,8.33
2023-02-28T09:43:52.401Z,5.93
2023-02-28T09:46:42.798Z,7.50
2023-02-28T09:49:38.622Z,6.10
2023-02-28T09:52:30.944Z,5.23
2023-02-28T09:55:24.180Z,5.80
2023-02-28T09:58:22.600Z,6.40
2023-02-28T10:01:14.142Z,10.90
2023-02-28T10:04:05.685Z,4.93
2023-02-28T10:06:53.951Z,7.37
2023-02-28T10:09:42.096Z,6.33
2023-02-28T10:12:31.555Z,6.10
2023-02-28T10:15:19.063Z,5.80
2023-02-28T10:18:09.878Z,5.07
2023-02-28T10:20:58.047Z,4.20
2023-02-28T10:23:46.025Z,8.83
2023-02-28T10:26:35.483Z,3.97
2023-02-28T10:29:22.061Z,4.30
2023-02-28T10:32:08.815Z,7.37
2023-02-28T10:34:59.713Z,7.83
2023-02-28T10:37:48.697Z,4.33
2023-02-28T10:40:37.392Z,5.43
2023-02-28T10:43:26.635Z,6.43
2023-02-28T10:46:26.408Z,8.53
2023-02-28T10:49:21.817Z,6.20
2023-02-28T10:52:11.729Z,6.30
2023-02-28T10:55:17.023Z,11.77
2023-02-28T10:58:04.374Z,6.87
2023-02-28T11:00:53.776Z,11.00
2023-02-28T11:03:40.362Z,7.00
2023-02-28T11:06:31.108Z,6.03
2023-02-28T11:09:25.016Z,6.47
2023-02-28T11:12:24.119Z,6.80
2023-02-28T11:15:25.943Z,5.10
2023-02-28T11:18:25.114Z,5.00
2023-02-28T11:21:18.679Z,7.10
2023-02-28T11:24:24.305Z,7.63
2023-02-28T11:27:27.488Z,5.50
2023-02-28T11:30:28.005Z,7.10
2023-02-28T11:33:29.615Z,6.23
2023-02-28T11:36:20.933Z,7.93
2023-02-28T11:39:14.362Z,6.97
2023-02-28T11:42:13.600Z,8.27
2023-02-28T11:45:12.315Z,7.50
2023-02-28T11:48:06.543Z,6.87
2023-02-28T11:51:04.069Z,8.60
2023-02-28T11:54:16.758Z,7.20
2023-02-28T11:57:17.968Z,5.87
2023-02-28T12:00:15.712Z,8.63
2023-02-28T12:03:14.321Z,6.77
2023-02-28T12:06:15.738Z,8.73
2023-02-28T12:09:19.351Z,7.40
2023-02-28T12:12:17.369Z,5.97
2023-02-28T12:15:25.653Z,6.43
2023-02-28T12:18:24.607Z,10.87
2023-02-28T12:21:20.080Z,6.23
2023-02-28T12:24:29.770Z,7.53
2023-02-28T12:27:21.216Z,7.83
2023-02-28T12:30:16.863Z,4.83
2023-02-28T12:33:06.257Z,10.60
2023-02-28T12:35:58.009Z,7.13
2023-02-28T12:38:50.174Z,9.37
2023-02-28T12:41:42.389Z,8.10
2023-02-28T12:44:33.272Z,7.23
2023-02-28T12:47:20.982Z,7.20
2023-02-28T12:50:12.505Z,7.83
2023-02-28T12:53:03.794Z,6.93
2023-02-28T12:56:05.095Z,8.40
2023-02-28T12:58:58.548Z,6.10
2023-02-28T13:02:03.970Z,6.70
2023-02-28T13:05:03.864Z,9.00
2023-02-28T13:08:13.212Z,9.53
2023-02-28T13:11:03.740Z,7.87
2023-02-28T13:14:00.215Z,7.60
2023-02-28T13:17:01.180Z,7.67
2023-02-28T13:19:58.296Z,5.60
2023-02-28T13:22:46.609Z,6.27
2023-02-28T13:25:58.651Z,6.50
2023-02-28T13:29:02.578Z,7.47
2023-02-28T13:32:27.268Z,8.07
2023-02-28T13:35:40.614Z,7.63
2023-02-28T13:38:36.856Z,8.50
2023-02-28T13:41:51.060Z,8.20
2023-02-28T13:45:22.893Z,10.10
2023-02-28T13:48:21.471Z,10.80
2023-02-28T13:51:41.824Z,6.13
2023-02-28T13:54:42.707Z,8.53
2023-02-28T13:57:41.602Z,7.70
2023-02-28T14:00:43.604Z,10.37
2023-02-28T14:03:43.914Z,6.27
2023-02-28T14:06:33.227Z,7.00
2023-02-28T14:09:26.644Z,8.33
2023-02-28T14:12:51.052Z,10.50
2023-02-28T14:15:47.933Z,7.13
2023-02-28T14:18:36.756Z,6.60
2023-02-28T14:21:26.547Z,6.37
2023-02-28T14:24:37.907Z,7.10
2023-02-28T14:27:35.807Z,6.97
2023-02-28T14:30:53.806Z,7.60
2023-02-28T14:34:05.611Z,7.27
2023-02-28T14:36:54.486Z,8.07
2023-02-28T14:39:44.621Z,8.53
2023-02-28T14:42:34.270Z,7.77
2023-02-28T14:45:22.268Z,9.00
2023-02-28T14:48:12.528Z,7.53
2023-02-28T14:51:00.601Z,7.53
2023-02-28T14:53:52.831Z,6.70
2023-02-28T14:56:41.310Z,6.30
2023-02-28T14:59:33.794Z,8.57
2023-02-28T15:02:23.759Z,10.13
2023-02-28T15:05:25.580Z,7.67
2023-02-28T15:08:15.007Z,9.30
2023-02-28T15:11:04.631Z,7.37
2023-02-28T15:13:56.278Z,7.97
2023-02-28T15:16:45.900Z,6.83
2023-02-28T15:19:35.799Z,9.10
2023-02-28T15:22:30.683Z,8.53
2023-02-28T15:25:21.794Z,6.37
2023-02-28T15:28:16.386Z,8.00
2023-02-28T15:31:05.803Z,7.30
2023-02-28T15:33:57.992Z,9.83
2023-02-28T15:36:44.519Z,8.43
2023-02-28T15:39:44.223Z,7.57
2023-02-28T15:42:32.439Z,8.13
2023-02-28T15:45:31.416Z,6.97
2023-02-28T15:48:21.704Z,7.63
2023-02-28T15:51:10.651Z,9.60
2023-02-28T15:54:00.392Z,7.90
2023-02-28T15:56:52.385Z,7.97
2023-02-28T15:59:39.944Z,7.20
2023-02-28T16:02:33.785Z,6.43
2023-02-28T16:05:28.824Z,9.57
2023-02-28T16:08:17.522Z,9.67
2023-02-28T16:11:03.828Z,10.10
2023-02-28T16:13:53.556Z,6.97
2023-02-28T16:16:44.884Z,9.00
2023-02-28T16:19:33.751Z,9.13
2023-02-28T16:22:20.579Z,11.17
2023-02-28T16:25:08.958Z,9.77
2023-02-28T16:27:57.901Z,7.77
2023-02-28T16:30:45.574Z,8.77
2023-02-28T16:33:32.139Z,10.57
2023-02-28T16:36:20.598Z,7.23
2023-02-28T16:39:07.109Z,11.63
2023-02-28T16:41:54.069Z,10.03
2023-02-28T16:44:40.437Z,10.73
2023-02-28T16:47:28.782Z,11.80
2023-02-28T16:50:18.321Z,11.83
2023-02-28T16:53:05.099Z,11.47
2023-02-28T16:55:51.877Z,12.70
2023-02-28T16:58:38.664Z,10.67
2023-02-28T17:01:25.582Z,14.47
2023-02-28T17:04:15.220Z,13.47
2023-02-28T17:07:02.094Z,9.20
2023-02-28T17:09:48.425Z,10.17
2023-02-28T17:12:34.756Z,11.83
2023-02-28T17:15:22.347Z,10.47
2023-02-28T17:18:12.077Z,11.23
2023-02-28T17:20:59.790Z,12.80
2023-02-28T17:23:46.256Z,15.15
2023-02-28T17:26:33.206Z,19.77
2023-02-28T17:29:22.294Z,21.40
2023-02-28T17:32:17.252Z,28.00
2023-02-28T17:35:04.666Z,20.20
2023-02-28T17:37:52.736Z,17.27
2023-02-28T17:40:39.692Z,23.03
2023-02-28T17:43:27.019Z,33.73
2023-02-28T17:46:21.140Z,16.53
2023-02-28T17:49:07.632Z,17.50
2023-02-28T17:51:54.036Z,19.77
2023-02-28T17:54:42.038Z,21.43
2023-02-28T17:57:28.533Z,27.93
2023-02-28T18:00:17.090Z,18.13
2023-02-28T18:03:03.542Z,15.97
2023-02-28T18:05:50.167Z,17.40
2023-02-28T18:08:37.226Z,22.60
2023-02-28T18:11:27.003Z,11.53
2023-02-28T18:14:13.711Z,16.83
2023-02-28T18:17:00.892Z,18.77
2023-02-28T18:19:47.313Z,15.63
2023-02-28T18:22:36.990Z,20.20
2023-02-28T18:25:23.673Z,15.37
2023-02-28T18:28:11.559Z,14.00
2023-02-28T18:30:58.054Z,13.67
2023-02-28T18:33:45.087Z,13.70
2023-02-28T18:36:31.912Z,14.77
2023-02-28T18:39:19.412Z,13.83
2023-02-28T18:42:06.320Z,12.00
2023-02-28T18:44:54.012Z,14.90
2023-02-28T18:47:40.339Z,15.60
2023-02-28T18:50:26.739Z,12.83
2023-02-28T18:53:13.107Z,17.23
2023-02-28T18:56:01.901Z,15.17
2023-02-28T18:58:48.812Z,14.57
2023-02-28T19:01:36.730Z,14.50
2023-02-28T19:04:23.595Z,16.93
2023-02-28T19:07:10.169Z,12.40
2023-02-28T19:09:56.736Z,12.13
2023-02-28T19:12:43.362Z,12.73
2023-02-28T19:15:30.346Z,11.93
2023-02-28T19:18:18.628Z,17.30
2023-02-28T19:21:07.927Z,15.03
2023-02-28T19:23:55.017Z,14.60
2023-02-28T19:26:41.746Z,11.57
2023-02-28T19:29:28.210Z,13.43
2023-02-28T19:32:14.513Z,15.10
2023-02-28T19:35:03.077Z,14.87
2023-02-28T19:37:50.509Z,11.57
2023-02-28T19:40:37.404Z,14.47
2023-02-28T19:43:24.346Z,13.70
2023-02-28T19:46:11.912Z,14.27
2023-02-28T19:48:58.541Z,16.83
2023-02-28T19:51:46.393Z,21.03
2023-02-28T19:54:34.716Z,23.70
2023-02-28T19:57:21.099Z,16.33
2023-02-28T20:00:09.017Z,21.10
2023-02-28T20:02:55.791Z,19.43
2023-02-28T20:05:42.500Z,28.75
2023-02-28T20:08:30.820Z,20.20
2023-02-28T20:11:18.664Z,25.93
2023-02-28T20:14:06.240Z,19.63
2023-02-28T20:16:52.712Z,17.60
2023-02-28T20:19:39.111Z,16.13
2023-02-28T20:22:25.622Z,17.47
2023-02-28T20:25:13.411Z,19.17
2023-02-28T20:27:59.828Z,17.27
2023-02-28T20:30:48.642Z,16.43
2023-02-28T20:33:35.020Z,20.27
2023-02-28T20:36:22.668Z,23.07
2023-02-28T20:39:09.240Z,17.30
2023-02-28T20:41:57.101Z,17.17
2023-02-28T20:44:43.739Z,15.17
2023-02-28T20:47:30.204Z,17.20
2023-02-28T20:50:17.087Z,13.20
2023-02-28T20:53:04.605Z,17.10
2023-02-28T20:55:57.456Z,22.27
2023-02-28T20:58:47.045Z,14.83
2023-02-28T21:01:34.408Z,14.33
2023-02-28T21:04:21.081Z,12.37
2023-02-28T21:07:07.558Z,11.37
2023-02-28T21:09:55.623Z,14.67
2023-02-28T21:12:42.023Z,15.60
2023-02-28T21:15:30.065Z,14.27
2023-02-28T21:18:16.779Z,14.77
2023-02-28T21:21:04.002Z,11.33
2023-02-28T21:23:50.892Z,18.00
2023-02-28T21:26:37.214Z,13.77
2023-02-28T21:29:23.757Z,12.60
2023-02-28T21:32:11.891Z,18.47
2023-02-28T21:34:58.156Z,12.67
2023-02-28T21:37:45.099Z,15.43
2023-02-28T21:40:31.998Z,13.83
2023-02-28T21:43:18.267Z,11.27
2023-02-28T21:46:06.032Z,11.30
2023-02-28T21:48:54.570Z,13.30
2023-02-28T21:51:42.676Z,14.47
2023-02-28T21:54:29.326Z,17.40
2023-02-28T21:57:16.032Z,13.90
2023-02-28T22:00:03.822Z,11.80
2023-02-28T22:02:50.796Z,14.73
2023-02-28T22:05:38.611Z,11.17
2023-02-28T22:08:25.379Z,13.40
2023-02-28T22:11:15.245Z,11.73
2023-02-28T22:14:02.012Z,13.17
2023-02-28T22:16:52.715Z,13.53
2023-02-28T22:19:40.815Z,13.73
2023-02-28T22:22:28.583Z,11.13
2023-02-28T22:25:15.030Z,11.23
2023-02-28T22:28:01.427Z,14.47
2023-02-28T22:30:47.988Z,13.57
2023-02-28T22:33:34.433Z,11.60
2023-02-28T22:36:21.140Z,15.27
2023-02-28T22:39:09.851Z,14.00
2023-02-28T22:41:56.390Z,13.73
2023-02-28T22:44:42.851Z,16.13
2023-02-28T22:47:29.364Z,12.67
2023-02-28T22:50:16.282Z,16.73
2023-02-28T22:53:02.906Z,17.27
2023-02-28T22:55:56.932Z,16.93
2023-02-28T22:58:44.996Z,16.27
2023-02-28T23:01:34.310Z,15.77
2023-02-28T23:04:20.925Z,15.37
2023-02-28T23:07:07.165Z,15.13
2023-02-28T23:09:54.682Z,25.03
2023-02-28T23:12:50.424Z,19.00
2023-02-28T23:15:40.311Z,18.60
2023-02-28T23:18:27.263Z,16.17
2023-02-28T23:21:13.733Z,15.67
2023-02-28T23:24:02.629Z,18.37
2023-02-28T23:26:50.739Z,19.43
2023-02-28T23:29:38.832Z,18.83
2023-02-28T23:32:25.571Z,21.77
2023-02-28T23:35:12.876Z,16.30
2023-02-28T23:37:59.819Z,24.10
2023-02-28T23:40:46.529Z,19.83
2023-02-28T23:43:32.911Z,19.00
2023-02-28T23:46:22.536Z,19.53
2023-02-28T23:49:09.160Z,16.03
2023-02-28T23:51:55.795Z,21.07
2023-02-28T23:54:42.399Z,19.50
2023-02-28T23:57:29.692Z,14.50
